All Spectrum Aviation - Van Nuys Airport - KVNY

HOME

Condor Squadron KVNY Webcam

Visit our Electronics Store

Condor Squadron Webcam - Van Nuys Airport - KVNY
Picture taken: Wed, 23 Jan 2019 10:49:49 -0800
YouTube Channel!    Latest Timelapse Movie    Full Size Image    Regular Size Image    

2019/01/23 18:51 KVNY 231851Z 04005KT 10SM CLR 18/M07 A3032 RMK AO2 SLP263 T01831067

HOME

Condor Squadron KVNY Webcam

Visit our Electronics Store